Time;durP1;ratioP1;P1;durP2;ratioP2;P2;SDS_P1;SDS_P2;PMS_P1;PMS_P2;Temp;Humidity;BMP_temperature;BMP_pressure;BME280_temperature;BME280_humidity;BME280_pressure;Samples;Min_cycle;Max_cycle;Signal;HPM_P1;HPM_P2
2022/02/12 00:01:30;;;;;;;40.55;27.20;;;;;;;1.26;100.00;101346.78;1697960;82;21908;-85
2022/02/12 00:03:57;;;;;;;41.83;28.67;;;;;;;1.15;100.00;101347.05;1725036;82;21011;-86
2022/02/12 00:06:24;;;;;;;40.40;29.37;;;;;;;1.06;100.00;101348.08;1700268;82;21113;-81
2022/02/12 00:08:51;;;;;;;47.65;33.48;;;;;;;1.02;100.00;101340.07;1699515;82;21070;-81
2022/02/12 00:11:18;;;;;;;53.20;35.85;;;;;;;0.99;100.00;101341.87;1727419;82;21058;-82
2022/02/12 00:13:45;;;;;;;52.15;34.75;;;;;;;0.98;100.00;101342.75;1729295;81;21902;-85
2022/02/12 00:16:12;;;;;;;61.60;41.33;;;;;;;0.96;100.00;101340.23;1708171;82;21023;-84
2022/02/12 00:18:39;;;;;;;58.95;39.30;;;;;;;0.96;100.00;101344.50;1711052;81;21068;-86
2022/02/12 00:21:06;;;;;;;63.20;41.08;;;;;;;0.94;100.00;101343.26;1692161;83;21078;-84
2022/02/12 00:23:33;;;;;;;56.02;38.40;;;;;;;0.88;100.00;101346.80;1660567;84;21081;-85
2022/02/12 00:26:00;;;;;;;58.05;40.05;;;;;;;0.74;100.00;101338.58;1685020;83;21789;-84
2022/02/12 00:28:26;;;;;;;61.85;41.63;;;;;;;0.62;100.00;101338.41;1690093;83;21618;-81
2022/02/12 00:30:53;;;;;;;61.83;39.73;;;;;;;0.50;100.00;101336.97;1681717;84;21099;-81
2022/02/12 00:33:20;;;;;;;57.93;40.80;;;;;;;0.40;100.00;101331.62;1681548;84;21103;-82
2022/02/12 00:35:47;;;;;;;56.83;38.83;;;;;;;0.33;100.00;101333.91;1654249;84;21190;-83
2022/02/12 00:38:15;;;;;;;54.03;37.60;;;;;;;0.26;100.00;101333.19;1660820;85;22009;-82
2022/02/12 00:40:41;;;;;;;57.60;39.75;;;;;;;0.20;100.00;101334.14;1628414;84;21129;-81
2022/02/12 00:43:08;;;;;;;55.60;35.33;;;;;;;0.17;100.00;101332.08;1663105;85;21051;-82
2022/02/12 00:45:35;;;;;;;48.75;33.40;;;;;;;0.12;100.00;101337.33;1618845;86;21070;-82
2022/02/12 00:48:02;;;;;;;46.05;32.23;;;;;;;0.07;100.00;101332.71;1646253;86;21715;-82
2022/02/12 00:50:30;;;;;;;43.48;32.53;;;;;;;0.05;100.00;101333.17;1650633;85;21132;-82
2022/02/12 00:52:57;;;;;;;42.53;32.05;;;;;;;0.03;100.00;101338.78;1685146;83;21061;-82
2022/02/12 00:55:24;;;;;;;41.73;30.92;;;;;;;-0.02;100.00;101341.43;1684277;83;21120;-81
2022/02/12 00:57:51;;;;;;;39.78;29.23;;;;;;;-0.05;100.00;101343.62;1686850;83;21081;-82
2022/02/12 01:00:18;;;;;;;39.67;29.00;;;;;;;-0.06;100.00;101357.29;1697808;83;21476;-82
2022/02/12 01:02:45;;;;;;;36.28;27.20;;;;;;;-0.05;100.00;101356.42;1693417;83;21210;-84
2022/02/12 01:05:12;;;;;;;40.48;29.02;;;;;;;-0.02;100.00;101351.22;1712035;83;21648;-84
2022/02/12 01:07:40;;;;;;;43.58;30.90;;;;;;;0.04;100.00;101348.16;1710646;83;21117;-86
2022/02/12 01:10:08;;;;;;;38.88;29.10;;;;;;;0.06;100.00;101337.00;1714204;83;21112;-84
2022/02/12 01:12:37;;;;;;;41.25;30.32;;;;;;;0.09;100.00;101354.02;1708470;82;21546;-82
2022/02/12 01:15:04;;;;;;;39.63;30.52;;;;;;;0.14;100.00;101354.77;1711290;83;21382;-82
2022/02/12 01:17:35;;;;;;;41.75;29.98;;;;;;;0.19;100.00;101358.52;1738376;82;21050;-81
2022/02/12 01:20:03;;;;;;;46.90;31.25;;;;;;;0.24;100.00;101358.02;1731055;81;21573;-81
2022/02/12 01:22:31;;;;;;;46.53;31.70;;;;;;;0.29;100.00;101360.03;1731963;82;21070;-84
2022/02/12 01:24:58;;;;;;;55.88;36.63;;;;;;;0.34;100.00;101354.36;1707322;81;21089;-84
2022/02/12 01:27:25;;;;;;;48.42;34.40;;;;;;;0.39;100.00;101345.30;1721015;82;21822;-84
2022/02/12 01:29:52;;;;;;;51.02;33.45;;;;;;;0.40;100.00;101350.39;1727588;82;21156;-82
2022/02/12 01:32:19;;;;;;;49.80;33.10;;;;;;;0.42;100.00;101350.38;1726006;82;21152;-81
2022/02/12 01:34:45;;;;;;;49.60;31.60;;;;;;;0.45;100.00;101350.30;1734424;81;21053;-82
2022/02/12 01:37:12;;;;;;;44.75;30.90;;;;;;;0.50;100.00;101347.22;1697483;83;21455;-81
2022/02/12 01:39:39;;;;;;;46.25;31.10;;;;;;;0.53;100.00;101348.41;1719575;82;21214;-81
2022/02/12 01:42:06;;;;;;;42.03;29.95;;;;;;;0.55;100.00;101342.82;1709951;83;21549;-82
2022/02/12 01:44:37;;;;;;;41.25;29.18;;;;;;;0.57;100.00;101341.50;1686845;83;21055;-81
2022/02/12 01:47:06;;;;;;;40.38;27.95;;;;;;;0.59;100.00;101339.75;1687116;83;21532;-82
2022/02/12 01:49:35;;;;;;;42.90;28.52;;;;;;;0.63;100.00;101347.34;1686899;83;21067;-81
2022/02/12 01:52:06;;;;;;;45.30;29.60;;;;;;;0.64;100.00;101344.36;1688118;83;21154;-81
2022/02/12 01:54:33;;;;;;;41.48;28.92;;;;;;;0.68;100.00;101354.94;1675801;83;21647;-82
2022/02/12 01:57:03;;;;;;;40.55;26.85;;;;;;;0.71;100.00;101350.17;1709457;82;21053;-84
2022/02/12 01:59:32;;;;;;;45.83;30.57;;;;;;;0.72;100.00;101345.45;1712945;82;21049;-82
2022/02/12 02:02:00;;;;;;;36.23;27.40;;;;;;;0.72;100.00;101339.88;1723113;81;21566;-83
2022/02/12 02:04:30;;;;;;;37.83;27.97;;;;;;;0.73;100.00;101345.87;1726264;81;21122;-82
2022/02/12 02:06:57;;;;;;;37.35;27.32;;;;;;;0.76;100.00;101340.68;1680455;83;21182;-84
2022/02/12 02:09:23;;;;;;;37.45;25.80;;;;;;;0.77;100.00;101343.20;1713982;82;21057;-82
2022/02/12 02:11:50;;;;;;;37.38;26.73;;;;;;;0.77;100.00;101337.21;1713401;83;21232;-81
2022/02/12 02:14:17;;;;;;;36.35;26.93;;;;;;;0.77;100.00;101346.19;1713458;82;21081;-82
2022/02/12 02:16:45;;;;;;;38.80;28.12;;;;;;;0.77;100.00;101346.19;1714866;82;21104;-82
2022/02/12 02:19:13;;;;;;;37.50;28.23;;;;;;;0.77;100.00;101351.31;1712561;83;21785;-82
2022/02/12 02:21:40;;;;;;;40.10;27.60;;;;;;;0.79;100.00;101349.56;1722469;81;21709;-81
2022/02/12 02:24:08;;;;;;;40.55;29.12;;;;;;;0.78;100.00;101352.58;1717987;82;21527;-84
2022/02/12 02:26:38;;;;;;;41.10;29.40;;;;;;;0.80;100.00;101354.27;1713558;82;21742;-83
2022/02/12 02:29:05;;;;;;;38.98;27.80;;;;;;;0.77;100.00;101355.16;1716209;81;21144;-82
2022/02/12 02:31:31;;;;;;;36.05;26.65;;;;;;;0.73;100.00;101352.28;1730174;82;21014;-81
2022/02/12 02:33:58;;;;;;;38.20;28.20;;;;;;;0.66;100.00;101350.27;1720111;81;21081;-81
2022/02/12 02:36:25;;;;;;;37.17;27.32;;;;;;;0.62;100.00;101349.50;1720441;82;21153;-82
2022/02/12 02:38:52;;;;;;;37.45;27.37;;;;;;;0.61;100.00;101345.70;1703193;83;21073;-81
2022/02/12 02:41:19;;;;;;;38.58;28.73;;;;;;;0.62;100.00;101349.50;1701903;83;21150;-81
2022/02/12 02:43:46;;;;;;;39.58;27.98;;;;;;;0.65;100.00;101351.59;1722818;82;21546;-81
2022/02/12 02:46:13;;;;;;;38.28;28.15;;;;;;;0.68;100.00;101352.83;1735135;82;21003;-80
2022/02/12 02:48:40;;;;;;;40.28;28.83;;;;;;;0.69;100.00;101353.20;1740673;82;21018;-81
2022/02/12 02:56:34;;;;;;;42.08;27.00;;;;;;;0.69;100.00;101351.50;1699769;83;21084;-81
2022/02/12 02:59:01;;;;;;;38.42;28.40;;;;;;;0.71;100.00;101354.02;1675498;83;21729;-82
2022/02/12 03:01:28;;;;;;;42.03;29.75;;;;;;;0.67;100.00;101351.97;1675456;82;21078;-82
2022/02/12 03:03:56;;;;;;;45.23;30.08;;;;;;;0.62;100.00;101344.83;1687244;82;21156;-82
2022/02/12 03:06:26;;;;;;;41.63;29.90;;;;;;;0.54;100.00;101342.41;1672821;83;21782;-84
2022/02/12 03:08:55;;;;;;;43.73;30.95;;;;;;;0.48;100.00;101340.44;1682895;83;21544;-82
2022/02/12 03:11:22;;;;;;;42.80;30.10;;;;;;;0.43;100.00;101347.77;1704662;82;21732;-83
2022/02/12 03:13:51;;;;;;;45.92;31.73;;;;;;;0.40;100.00;101347.83;1696699;82;22123;-81
2022/02/12 03:16:19;;;;;;;46.28;30.92;;;;;;;0.38;100.00;101347.45;1716903;82;21057;-82
2022/02/12 03:18:48;;;;;;;48.38;32.40;;;;;;;0.36;100.00;101346.22;1725554;82;21814;-82
2022/02/12 03:21:15;;;;;;;47.67;32.75;;;;;;;0.35;100.00;101343.70;1696963;82;21191;-82
2022/02/12 03:23:43;;;;;;;49.23;33.02;;;;;;;0.32;100.00;101348.45;1727384;82;21135;-83
2022/02/12 03:26:12;;;;;;;44.03;30.45;;;;;;;0.29;100.00;101342.92;1716115;82;21001;-82
2022/02/12 03:28:39;;;;;;;52.62;34.13;;;;;;;0.26;100.00;101328.92;1689396;83;21534;-82
2022/02/12 03:31:06;;;;;;;49.80;33.18;;;;;;;0.27;100.00;101334.45;1700956;83;21884;-80
2022/02/12 03:33:33;;;;;;;56.23;35.40;;;;;;;0.24;100.00;101330.66;1689534;83;21059;-80
2022/02/12 03:36:00;;;;;;;46.15;31.37;;;;;;;0.20;100.00;101325.63;1664702;83;21066;-81
2022/02/12 03:38:31;;;;;;;42.55;29.27;;;;;;;0.18;100.00;101323.11;1685869;83;21013;-81
2022/02/12 03:41:01;;;;;;;45.73;31.17;;;;;;;0.18;100.00;101316.70;1665705;84;21101;-83
2022/02/12 03:43:33;;;;;;;45.03;30.57;;;;;;;0.19;100.00;101316.25;1694955;83;21860;-81
2022/02/12 03:46:03;;;;;;;51.08;32.20;;;;;;;0.20;100.00;101316.66;1635524;86;21096;-82
2022/02/12 03:48:30;;;;;;;45.85;30.43;;;;;;;0.21;100.00;101314.06;1659029;85;21366;-87
2022/02/12 03:50:57;;;;;;;44.77;29.35;;;;;;;0.19;100.00;101309.43;1652146;85;21043;-81
2022/02/12 03:53:24;;;;;;;44.13;30.27;;;;;;;0.18;100.00;101312.86;1623803;86;21532;-81
2022/02/12 03:55:52;;;;;;;45.90;30.45;;;;;;;0.16;100.00;101301.80;1655783;85;21148;-82
2022/02/12 03:58:20;;;;;;;45.65;30.88;;;;;;;0.17;100.00;101298.78;1665308;85;21575;-82
2022/02/12 04:00:49;;;;;;;45.88;31.20;;;;;;;0.17;100.00;101300.06;1663429;85;21210;-82
2022/02/12 04:03:18;;;;;;;46.20;30.65;;;;;;;0.17;100.00;101303.48;1709146;83;21172;-81
2022/02/12 04:05:45;;;;;;;46.90;29.72;;;;;;;0.19;100.00;101303.03;1674066;84;21343;-82
2022/02/12 04:08:18;;;;;;;39.30;27.95;;;;;;;0.20;100.00;101297.45;1668044;84;21130;-82
2022/02/12 04:10:49;;;;;;;42.83;28.20;;;;;;;0.21;100.00;101299.97;1656907;85;21049;-82
2022/02/12 04:13:20;;;;;;;40.33;27.58;;;;;;;0.24;100.00;101298.64;1663894;85;21058;-81
2022/02/12 04:15:47;;;;;;;41.83;27.73;;;;;;;0.26;100.00;101295.61;1668177;84;21200;-85
2022/02/12 04:18:16;;;;;;;38.88;26.73;;;;;;;0.30;100.00;101296.39;1676981;84;21638;-86
2022/02/12 04:20:44;;;;;;;38.30;27.05;;;;;;;0.30;100.00;101293.38;1656422;84;21169;-83
2022/02/12 04:23:14;;;;;;;42.15;29.77;;;;;;;0.34;100.00;101297.16;1663481;84;21119;-82
2022/02/12 04:25:42;;;;;;;46.85;30.48;;;;;;;0.34;100.00;101293.33;1673502;83;21563;-86
2022/02/12 04:28:10;;;;;;;41.35;27.85;;;;;;;0.33;100.00;101292.47;1694682;82;21093;-84
2022/02/12 04:30:39;;;;;;;41.85;27.45;;;;;;;0.31;100.00;101283.54;1726361;81;21053;-85
2022/02/12 04:33:08;;;;;;;40.80;27.22;;;;;;;0.31;100.00;101279.70;1714457;81;21131;-87
2022/02/12 04:35:35;;;;;;;36.65;26.57;;;;;;;0.33;100.00;101276.27;1704951;83;21083;-83
2022/02/12 04:38:05;;;;;;;42.38;28.90;;;;;;;0.35;100.00;101273.23;1707090;81;21351;-83
2022/02/12 04:40:33;;;;;;;;;;;;;;;0.35;100.00;101277.08;1733782;82;21132;-84
2022/02/12 04:43:00;;;;;;;43.50;28.25;;;;;;;0.36;100.00;101281.33;1717584;82;20225;-82
2022/02/12 04:45:29;;;;;;;42.05;26.97;;;;;;;0.36;100.00;101277.48;1727241;82;21132;-83
2022/02/12 04:47:56;;;;;;;42.58;27.98;;;;;;;0.38;100.00;101279.13;1735894;82;21050;-83
2022/02/12 04:50:24;;;;;;;46.02;30.57;;;;;;;0.43;100.00;101277.75;1715445;82;21625;-83
2022/02/12 04:52:51;;;;;;;44.00;30.45;;;;;;;0.46;100.00;101277.66;1711557;82;21717;-82
2022/02/12 04:55:20;;;;;;;43.90;30.20;;;;;;;0.44;100.00;101273.03;1710923;83;21048;-83
2022/02/12 04:57:47;;;;;;;53.35;29.35;;;;;;;0.40;100.00;101267.11;1709282;83;21808;-84
2022/02/12 05:00:15;;;;;;;48.33;30.95;;;;;;;0.36;100.00;101260.38;1711883;82;21595;-85
2022/02/12 05:02:46;;;;;;;51.15;28.62;;;;;;;0.51;100.00;101260.48;1710286;82;21144;-83
2022/02/12 05:05:13;;;;;;;52.00;31.82;;;;;;;0.76;100.00;101261.20;1713248;83;21096;-84
2022/02/12 05:07:40;;;;;;;67.15;32.67;;;;;;;1.03;100.00;101254.55;1713610;82;21093;-85
2022/02/12 05:10:10;;;;;;;95.95;33.78;;;;;;;1.23;100.00;101254.05;1712544;82;21168;-84
2022/02/12 05:12:38;;;;;;;70.57;33.10;;;;;;;1.44;100.00;101246.65;1686793;83;21041;-82
2022/02/12 05:28:40;;;;;;;44.05;27.67;;;;;;;2.26;100.00;101236.62;1819765;78;22677;-85
2022/02/12 05:31:07;;;;;;;38.92;27.82;;;;;;;2.09;100.00;101234.56;1805071;78;21034;-85
2022/02/12 05:33:37;;;;;;;45.75;28.52;;;;;;;1.94;100.00;101229.87;1790703;78;21138;-87
2022/02/12 05:36:09;;;;;;;36.33;26.25;;;;;;;1.79;100.00;101238.43;1753390;79;21534;-87
2022/02/12 05:38:41;;;;;;;39.42;25.82;;;;;;;1.66;100.00;101231.94;1781018;79;20991;-85
2022/02/12 05:41:11;;;;;;;35.25;25.48;;;;;;;1.55;100.00;101230.53;1709824;82;21145;-85
2022/02/12 05:43:41;;;;;;;35.63;25.45;;;;;;;1.51;100.00;101230.66;1697052;82;21065;-85
2022/02/12 05:46:11;;;;;;;33.78;23.67;;;;;;;1.46;100.00;101225.64;1686260;83;21046;-86
2022/02/12 05:48:38;;;;;;;36.23;24.95;;;;;;;1.41;100.00;101224.91;1723284;82;21093;-87
2022/02/12 05:51:06;;;;;;;34.67;23.98;;;;;;;1.38;100.00;101223.73;1716769;82;21046;-85
2022/02/12 05:53:36;;;;;;;36.00;24.50;;;;;;;1.32;100.00;101225.18;1729854;82;21070;-85
2022/02/12 05:56:03;;;;;;;34.25;23.55;;;;;;;1.28;100.00;101228.27;1711008;81;21026;-87
2022/02/12 05:58:33;;;;;;;30.80;22.52;;;;;;;1.26;100.00;101222.33;1718131;82;23700;-86
2022/02/12 06:01:01;;;;;;;34.33;22.45;;;;;;;1.28;100.00;101223.56;1718142;82;20995;-86
2022/02/12 06:03:28;;;;;;;34.35;22.25;;;;;;;1.29;100.00;101220.12;1681304;83;21010;-87
2022/02/12 06:05:57;;;;;;;34.50;22.82;;;;;;;1.31;100.00;101212.77;1710965;83;21441;-87
2022/02/12 06:08:24;;;;;;;31.12;21.27;;;;;;;1.33;100.00;101218.71;1711015;83;21000;-88
2022/02/12 06:10:51;;;;;;;31.73;21.80;;;;;;;1.32;100.00;101221.33;1711063;82;21213;-88
2022/02/12 06:13:19;;;;;;;36.73;22.95;;;;;;;1.28;100.00;101209.02;1680382;83;21535;-87
2022/02/12 06:15:46;;;;;;;32.48;21.55;;;;;;;1.26;100.00;101206.48;1680475;83;21105;-88
2022/02/12 06:18:14;;;;;;;39.48;25.55;;;;;;;1.26;100.00;101209.50;1710960;83;21066;-87
2022/02/12 06:20:42;;;;;;;37.83;25.37;;;;;;;1.25;100.00;101214.23;1680818;83;21121;-88
2022/02/12 06:23:09;;;;;;;38.67;24.82;;;;;;;1.25;100.00;101218.08;1711055;83;21150;-89
2022/02/12 06:25:36;;;;;;;31.73;22.17;;;;;;;1.26;100.00;101214.63;1710837;83;21089;-88
2022/02/12 06:28:04;;;;;;;32.85;22.15;;;;;;;1.31;100.00;101217.08;1710174;82;21038;-88
2022/02/12 06:30:32;;;;;;;33.45;22.02;;;;;;;1.35;100.00;101208.40;1708753;82;21091;-93
2022/02/12 06:32:59;;;;;;;30.82;20.95;;;;;;;1.42;100.00;101211.19;1678593;82;21099;-90
2022/02/12 06:35:28;;;;;;;35.08;21.42;;;;;;;1.49;100.00;101211.42;1708807;82;21145;-92
2022/02/12 06:37:56;;;;;;;34.20;22.37;;;;;;;1.53;100.00;101209.61;1708269;82;21050;-90
2022/02/12 06:40:24;;;;;;;31.80;20.70;;;;;;;1.58;100.00;101207.78;1708127;84;21073;-90
2022/02/12 06:42:51;;;;;;;31.07;21.02;;;;;;;1.64;100.00;101202.92;1707792;83;21568;-91
2022/02/12 06:45:18;;;;;;;29.55;21.85;;;;;;;1.69;100.00;101204.90;1707943;82;21122;-90
2022/02/12 06:47:45;;;;;;;32.10;22.98;;;;;;;1.74;100.00;101197.90;1707686;82;22070;-90
2022/02/12 06:50:13;;;;;;;32.90;22.40;;;;;;;1.80;100.00;101199.45;1708177;82;21536;-90
2022/02/12 06:52:42;;;;;;;32.58;22.52;;;;;;;1.84;100.00;101195.92;1710373;82;20985;-90
2022/02/12 06:55:09;;;;;;;33.33;22.77;;;;;;;1.87;100.00;101194.53;1712999;82;21603;-92
2022/02/12 06:57:38;;;;;;;34.53;23.18;;;;;;;1.87;100.00;101190.25;1751490;80;21585;-88
2022/02/12 07:00:06;;;;;;;33.38;23.12;;;;;;;1.87;100.00;101191.54;1701527;82;21139;-90
2022/02/12 07:02:35;;;;;;;32.38;23.25;;;;;;;1.86;100.00;101187.28;1714455;83;21105;-91
2022/02/12 07:05:04;;;;;;;34.92;23.10;;;;;;;1.88;100.00;101182.92;1711953;80;21065;-89
2022/02/12 07:07:34;;;;;;;38.50;24.30;;;;;;;1.89;100.00;101183.32;1712351;83;21422;-91
2022/02/12 07:10:01;;;;;;;39.08;26.05;;;;;;;1.92;100.00;101183.70;1715869;81;21179;-89
2022/02/12 07:12:28;;;;;;;37.50;24.25;;;;;;;1.97;100.00;101188.67;1713778;82;21876;-90
2022/02/12 07:14:55;;;;;;;36.60;24.80;;;;;;;2.00;100.00;101186.02;1722028;81;21087;-91
2022/02/12 07:17:23;;;;;;;38.48;26.73;;;;;;;2.04;100.00;101190.20;1713587;82;21110;-90
2022/02/12 07:19:50;;;;;;;39.23;26.52;;;;;;;2.09;100.00;101187.45;1722302;82;22142;-91
2022/02/12 07:22:25;;;;;;;41.23;26.12;;;;;;;2.18;100.00;101185.89;1734059;80;21574;-91
2022/02/12 07:24:49;;;;;;;37.75;26.62;;;;;;;2.22;100.00;101187.50;1680996;83;21110;-90
2022/02/12 07:27:15;;;;;;;36.90;26.50;;;;;;;2.22;100.00;101187.50;1684535;82;21110;-93
2022/02/12 07:29:42;;;;;;;44.18;29.02;;;;;;;2.26;100.00;101186.95;1687661;82;21042;-92
2022/02/12 07:32:09;;;;;;;43.33;28.05;;;;;;;2.28;100.00;101186.02;1689017;84;21074;-92
2022/02/12 07:34:36;;;;;;;43.98;28.30;;;;;;;2.31;100.00;101185.08;1681606;84;21076;-92
2022/02/12 07:37:03;;;;;;;52.88;33.25;;;;;;;2.33;100.00;101183.30;1682165;84;21162;-92
2022/02/12 07:39:30;;;;;;;49.55;32.55;;;;;;;2.35;100.00;101188.78;1680409;84;21154;-92
2022/02/12 07:41:57;;;;;;;53.30;34.55;;;;;;;2.38;100.00;101190.88;1640837;85;21061;-91
2022/02/12 07:44:24;;;;;;;52.70;33.30;;;;;;;2.39;100.00;101204.95;1667120;84;21046;-91
2022/02/12 07:46:51;;;;;;;49.13;32.42;;;;;;;2.45;100.00;101189.33;1649076;84;21075;-90
2022/02/12 07:49:20;;;;;;;60.43;37.23;;;;;;;2.54;100.00;101185.64;1691162;84;21152;-91
2022/02/12 07:51:47;;;;;;;60.48;37.73;;;;;;;2.54;100.00;101185.64;1694243;84;21077;-92
2022/02/12 07:54:14;;;;;;;83.40;47.98;;;;;;;2.52;100.00;101188.23;1685817;84;21574;-91
2022/02/12 08:00:56;;;;;;;89.52;50.78;;;;;;;2.60;100.00;101203.89;1684145;84;21078;-89
2022/02/12 08:03:24;;;;;;;78.52;46.58;;;;;;;2.72;100.00;101197.05;1675738;84;21155;-89
2022/02/12 08:05:51;;;;;;;84.87;50.85;;;;;;;2.72;100.00;101197.05;1675952;84;21583;-89
2022/02/12 08:08:17;;;;;;;82.95;49.88;;;;;;;2.76;100.00;101199.93;1636056;84;21074;-87
2022/02/12 08:13:30;;;;;;;76.20;47.45;;;;;;;2.80;100.00;101201.49;1681095;84;21114;-88
2022/02/12 08:15:57;;;;;;;74.07;44.23;;;;;;;2.86;100.00;101200.88;1680997;84;21827;-88
2022/02/12 08:18:25;;;;;;;72.05;45.28;;;;;;;2.90;100.00;101207.63;1683204;85;21062;-87
2022/02/12 08:20:51;;;;;;;66.40;41.80;;;;;;;2.92;100.00;101206.67;1683231;85;21023;-87
2022/02/12 08:23:19;;;;;;;79.10;45.70;;;;;;;2.99;100.00;101191.88;1683266;85;21051;-86
2022/02/12 08:25:46;;;;;;;74.87;46.65;;;;;;;2.99;100.00;101191.88;1648344;86;21055;-87
2022/02/12 08:28:13;;;;;;;72.25;46.00;;;;;;;3.07;100.00;101192.45;1665491;81;21160;-87
2022/02/12 08:30:40;;;;;;;82.57;48.87;;;;;;;3.10;100.00;101197.48;1766932;81;21052;-86
2022/02/12 08:33:09;;;;;;;89.03;54.00;;;;;;;3.09;100.00;101198.83;1745289;81;21153;-86
2022/02/12 08:35:36;;;;;;;82.80;51.30;;;;;;;3.11;100.00;101218.47;1754119;81;21041;-87
2022/02/12 08:38:03;;;;;;;85.72;52.88;;;;;;;3.07;100.00;101222.05;1736669;81;21081;-87
2022/02/12 08:40:31;;;;;;;82.80;50.63;;;;;;;3.06;100.00;101216.51;1735306;82;21959;-88
2022/02/12 08:42:58;;;;;;;81.82;51.18;;;;;;;3.07;100.00;101216.91;1735148;82;21551;-90
2022/02/12 08:45:25;;;;;;;82.60;50.03;;;;;;;3.07;100.00;101217.33;1745401;81;21137;-89
2022/02/12 08:47:52;;;;;;;75.80;48.55;;;;;;;3.04;100.00;101211.02;1721889;82;21073;-90
2022/02/12 08:50:19;;;;;;;80.17;48.95;;;;;;;3.02;100.00;101221.34;1708577;81;21096;-91
2022/02/12 08:52:46;;;;;;;67.25;45.30;;;;;;;3.02;100.00;101218.77;1735274;81;21518;-93
2022/02/12 08:55:14;;;;;;;73.95;47.27;;;;;;;3.05;100.00;101211.39;1769967;79;21447;-92
2022/02/12 08:57:41;;;;;;;70.60;45.63;;;;;;;3.01;100.00;101222.23;1783533;79;21858;-92
2022/02/12 09:00:12;;;;;;;79.47;48.17;;;;;;;3.01;100.00;101228.66;1797389;78;21501;-92
2022/02/12 09:02:41;;;;;;;73.17;46.70;;;;;;;3.03;100.00;101210.16;1709821;81;21632;-90
2022/02/12 09:05:08;;;;;;;73.97;48.48;;;;;;;3.09;100.00;101211.23;1736411;81;21803;-91
2022/02/12 09:07:43;;;;;;;79.05;43.13;;;;;;;3.16;100.00;101210.13;1766769;81;21041;-90
2022/02/12 09:10:13;;;;;;;102.95;49.93;;;;;;;3.37;100.00;101219.73;1705830;81;21057;-91
2022/02/12 09:12:41;;;;;;;74.25;46.60;;;;;;;3.67;100.00;101212.65;1736453;82;21565;-90
2022/02/12 09:15:09;;;;;;;74.55;49.13;;;;;;;3.94;100.00;101210.78;1765108;81;21155;-88
2022/02/12 09:17:36;;;;;;;74.82;47.95;;;;;;;3.99;100.00;101218.80;1761997;81;21979;-88
2022/02/12 09:20:08;;;;;;;80.77;50.80;;;;;;;3.81;100.00;101216.02;1761445;79;21068;-90
2022/02/12 09:22:42;;;;;;;73.65;50.63;;;;;;;3.64;100.00;101223.08;1745454;81;21101;-87
2022/02/12 09:25:15;;;;;;;74.92;49.93;;;;;;;3.54;100.00;101229.45;1745184;81;21138;-84
2022/02/12 09:27:54;;;;;;;;;;;;;;;;;;;;;
2022/02/12 09:30:15;;;;;;;70.08;46.25;;;;;;;3.28;100.00;101223.05;1719034;81;21353;-86
2022/02/12 09:32:45;;;;;;;73.72;44.77;;;;;;;3.16;100.00;101225.57;1729777;82;21064;-84
2022/02/12 09:35:18;;;;;;;77.75;48.08;;;;;;;3.11;100.00;101218.47;1731589;81;21096;-83
2022/02/12 09:37:51;;;;;;;80.30;49.63;;;;;;;3.09;100.00;101215.55;1725020;81;22041;-83
2022/02/12 09:40:27;;;;;;;75.05;46.63;;;;;;;3.07;100.00;101216.91;1725009;81;21121;-80
2022/02/12 09:43:01;;;;;;;71.30;42.88;;;;;;;3.04;100.00;101219.57;1728687;82;21129;-82
2022/02/12 09:45:39;;;;;;;79.60;50.08;;;;;;;3.01;100.00;101215.80;1734724;82;21101;-88
2022/02/12 09:48:10;;;;;;;80.65;50.15;;;;;;;3.00;100.00;101218.01;1698486;82;21093;-82
2022/02/12 09:50:38;;;;;;;77.37;49.58;;;;;;;2.98;100.00;101219.78;1730284;82;21566;-82
2022/02/12 09:53:09;;;;;;;79.60;47.88;;;;;;;2.98;100.00;101219.78;1722550;82;21084;-84
2022/02/12 09:55:36;;;;;;;;;;;;;;;2.97;100.00;101212.95;1721133;82;21155;-87
2022/02/12 09:58:07;;;;;;;76.28;47.55;;;;;;;2.98;100.00;101223.64;1723640;82;20180;-89
2022/02/12 10:00:40;;;;;;;84.40;50.40;;;;;;;2.98;100.00;101212.06;1783048;79;21057;-83
2022/02/12 10:03:13;;;;;;;82.25;50.75;;;;;;;2.98;100.00;101212.06;1754243;79;21093;-85
2022/02/12 10:05:53;;;;;;;86.08;50.92;;;;;;;2.97;100.00;101207.34;1778314;79;20998;-82
2022/02/12 10:08:26;;;;;;;77.03;49.67;;;;;;;3.01;100.00;101208.08;1779941;79;21538;-82
2022/02/12 10:11:13;;;;;;;79.42;49.55;;;;;;;3.04;100.00;101211.85;1735109;80;21006;-83
2022/02/12 10:13:47;;;;;;;78.28;49.48;;;;;;;3.05;100.00;101216.11;1709847;82;21039;-80
2022/02/12 10:16:32;;;;;;;78.07;45.95;;;;;;;3.05;100.00;101219.97;1692533;82;21039;-90
2022/02/12 10:19:18;;;;;;;82.10;48.50;;;;;;;3.01;100.00;101215.80;1733520;80;21614;-89
2022/02/12 10:22:15;;;;;;;77.25;48.95;;;;;;;3.01;100.00;101215.80;1702221;82;21840;-90
2022/02/12 10:25:09;;;;;;;79.07;48.02;;;;;;;3.02;100.00;101206.37;1710770;81;21101;-90
2022/02/12 10:27:37;;;;;;;69.12;44.70;;;;;;;3.03;100.00;101216.59;1737497;82;21567;-86
2022/02/12 10:30:15;;;;;;;61.70;37.75;;;;;;;3.04;100.00;101223.43;1736191;81;21093;-88
2022/02/12 10:32:44;;;;;;;60.88;37.40;;;;;;;2.99;100.00;101218.90;1685760;83;21046;-89
2022/02/12 10:35:13;;;;;;;64.47;37.90;;;;;;;2.94;100.00;101232.34;1734921;81;21891;-89
2022/02/12 10:37:45;;;;;;;62.20;37.40;;;;;;;2.91;100.00;101233.29;1726227;82;21006;-88
2022/02/12 10:40:14;;;;;;;62.50;39.03;;;;;;;2.86;100.00;101243.33;1728148;82;21600;-87
2022/02/12 10:42:45;;;;;;;60.55;38.10;;;;;;;2.82;100.00;101242.16;1720809;83;21101;-89
2022/02/12 10:45:18;;;;;;;59.20;37.13;;;;;;;2.82;100.00;101242.16;1727528;82;21066;-87
2022/02/12 10:47:50;;;;;;;59.53;35.95;;;;;;;2.77;100.00;101238.88;1726443;82;21124;-86
2022/02/12 10:50:20;;;;;;;58.58;37.23;;;;;;;2.75;100.00;101247.11;1731842;81;21550;-86
2022/02/12 10:52:56;;;;;;;52.95;31.27;;;;;;;2.75;100.00;101247.11;1701270;83;21113;-90
2022/02/12 10:55:31;;;;;;;57.38;35.33;;;;;;;2.70;100.00;101236.11;1725379;82;21083;-90
2022/02/12 10:58:10;;;;;;;56.73;31.95;;;;;;;2.72;100.00;101241.23;1726880;81;21508;-91
2022/02/12 11:00:41;;;;;;;59.23;37.23;;;;;;;2.71;100.00;101236.52;1711138;83;21174;-88
2022/02/12 11:03:12;;;;;;;54.40;33.90;;;;;;;2.70;100.00;101239.97;1700812;83;21561;-91
2022/02/12 11:05:42;;;;;;;58.40;33.98;;;;;;;2.68;100.00;101238.74;1709394;83;21062;-88
2022/02/12 11:08:10;;;;;;;52.40;35.48;;;;;;;2.67;100.00;101241.38;1693295;83;21065;-88
2022/02/12 11:10:39;;;;;;;51.98;32.65;;;;;;;2.66;100.00;101248.69;1707096;83;21507;-88
2022/02/12 11:13:09;;;;;;;53.48;34.90;;;;;;;2.63;100.00;101247.48;1711030;81;21151;-88
2022/02/12 11:15:37;;;;;;;58.13;33.60;;;;;;;2.61;100.00;101256.97;1701061;83;21102;-91
2022/02/12 11:18:11;;;;;;;49.23;31.65;;;;;;;2.58;100.00;101251.95;1732165;80;21325;-89
2022/02/12 11:20:42;;;;;;;52.85;33.65;;;;;;;2.58;100.00;101253.23;1731591;81;21657;-88
2022/02/12 11:23:24;;;;;;;52.80;32.00;;;;;;;2.57;100.00;101263.11;1700076;83;21066;-91
2022/02/12 11:25:55;;;;;;;42.58;27.85;;;;;;;2.53;100.00;101270.09;1669952;83;21123;-90
2022/02/12 11:28:35;;;;;;;47.10;27.85;;;;;;;2.49;100.00;101268.05;1724251;82;21058;-91
2022/02/12 11:31:27;;;;;;;44.13;30.12;;;;;;;2.45;100.00;101278.02;1687418;82;21364;-87
2022/02/12 11:34:17;;;;;;;49.18;32.28;;;;;;;2.43;100.00;101287.53;1707526;82;21033;-86
2022/02/12 11:37:15;;;;;;;43.25;29.77;;;;;;;2.34;100.00;101309.65;1701143;81;21111;-89
2022/02/12 11:40:21;;;;;;;37.38;24.25;;;;;;;2.34;100.00;101309.65;1691437;82;22058;-86
2022/02/12 11:43:01;;;;;;;36.68;22.98;;;;;;;2.18;100.00;101302.81;1722653;82;21045;-90
2022/02/12 11:45:57;;;;;;;27.23;17.63;;;;;;;2.18;100.00;101302.81;1707841;82;21085;-89
2022/02/12 11:48:31;;;;;;;37.53;25.17;;;;;;;2.11;100.00;101335.58;1700285;82;21042;-87